SWA4261 KMEM-KRDU
Flight info
| Callsign | SWA4261 |
|---|---|
| Flight time | 1h 24m |
| Altitude | 35000 |
| Route | GOETZ7 DIYAB VXV KPASS ALDAN4 |
| Aircraft | B738/M-SDE2E3FGHIRWXY/LB1 |
Departure
| Time | 2026-05-06 22:34 |
|---|---|
| Airport | Memphis International Airport (KMEM) |
Arrival
| Time | 2026-05-06 23:59 |
|---|---|
| Airport | Raleigh-Durham International Airport (KRDU) |
| Time | Latitude | Longitude | Altitude | Speed | Heading |
|---|---|---|---|---|---|
| 2026-05-06 22:20 | 35.04372 | -89.98414 | 345 ft | 0 kts | 89° |
| 2026-05-06 22:27 | 35.04372 | -89.98424 | 345 ft | 2 kts | 89° |
| 2026-05-06 22:27 | 35.04371 | -89.98442 | 345 ft | 2 kts | 89° |
| 2026-05-06 22:27 | 35.04371 | -89.98460 | 345 ft | 2 kts | 89° |
| 2026-05-06 22:27 | 35.04371 | -89.98478 | 345 ft | 2 kts | 89° |
| 2026-05-06 22:28 | 35.04371 | -89.98496 | 345 ft | 2 kts | 89° |
| 2026-05-06 22:28 | 35.04371 | -89.98510 | 345 ft | 0 kts | 89° |
| 2026-05-06 22:28 | 35.04371 | -89.98513 | 345 ft | 0 kts | 89° |
| 2026-05-06 22:30 | 35.04356 | -89.98500 | 345 ft | 7 kts | 170° |
| 2026-05-06 22:30 | 35.04263 | -89.98498 | 345 ft | 18 kts | 179° |
| 2026-05-06 22:31 | 35.04096 | -89.98494 | 345 ft | 28 kts | 179° |
| 2026-05-06 22:31 | 35.03865 | -89.98489 | 345 ft | 37 kts | 179° |
| 2026-05-06 22:31 | 35.03580 | -89.98480 | 345 ft | 40 kts | 178° |
| 2026-05-06 22:31 | 35.03317 | -89.98471 | 345 ft | 35 kts | 178° |
| 2026-05-06 22:32 | 35.03085 | -89.98468 | 345 ft | 32 kts | 178° |
| 2026-05-06 22:32 | 35.02862 | -89.98462 | 345 ft | 32 kts | 178° |
| 2026-05-06 22:32 | 35.02639 | -89.98460 | 345 ft | 30 kts | 178° |
| 2026-05-06 22:32 | 35.02446 | -89.98456 | 345 ft | 21 kts | 187° |
| 2026-05-06 22:33 | 35.02408 | -89.98566 | 345 ft | 14 kts | 272° |
| 2026-05-06 22:33 | 35.02421 | -89.98679 | 345 ft | 12 kts | 318° |
| 2026-05-06 22:33 | 35.02541 | -89.98692 | 345 ft | 35 kts | 359° |
| 2026-05-06 22:33 | 35.02983 | -89.98702 | 345 ft | 97 kts | 360° |
| 2026-05-06 22:34 | 35.03745 | -89.98718 | 346 ft | 146 kts | 359° |
| 2026-05-06 22:34 | 35.06111 | -89.98789 | 1076 ft | 188 kts | 359° |
| 2026-05-06 22:34 | 35.07347 | -89.98734 | 1759 ft | 184 kts | 15° |
| 2026-05-06 22:35 | 35.08503 | -89.98044 | 2189 ft | 190 kts | 33° |
| 2026-05-06 22:35 | 35.09581 | -89.97018 | 2484 ft | 207 kts | 39° |
| 2026-05-06 22:35 | 35.10727 | -89.95782 | 2623 ft | 235 kts | 41° |
| 2026-05-06 22:35 | 35.12003 | -89.94359 | 2925 ft | 257 kts | 40° |
| 2026-05-06 22:36 | 35.13329 | -89.92834 | 3540 ft | 267 kts | 50° |
| 2026-05-06 22:36 | 35.14168 | -89.90829 | 4247 ft | 274 kts | 74° |
| 2026-05-06 22:36 | 35.14193 | -89.88440 | 4726 ft | 288 kts | 100° |
| 2026-05-06 22:36 | 35.13888 | -89.86036 | 5509 ft | 290 kts | 93° |
| 2026-05-06 22:37 | 35.13920 | -89.83591 | 6254 ft | 292 kts | 88° |
| 2026-05-06 22:37 | 35.14242 | -89.81115 | 6973 ft | 296 kts | 76° |
| 2026-05-06 22:37 | 35.14750 | -89.78693 | 7662 ft | 301 kts | 77° |
| 2026-05-06 22:37 | 35.15206 | -89.76161 | 8337 ft | 306 kts | 79° |
| 2026-05-06 22:38 | 35.15570 | -89.73604 | 8999 ft | 311 kts | 81° |
| 2026-05-06 22:38 | 35.15943 | -89.70966 | 9674 ft | 317 kts | 81° |
| 2026-05-06 22:38 | 35.16325 | -89.68323 | 10327 ft | 323 kts | 81° |
| 2026-05-06 22:38 | 35.16726 | -89.65536 | 10593 ft | 345 kts | 81° |
| 2026-05-06 22:39 | 35.17042 | -89.63331 | 10784 ft | 361 kts | 81° |
| 2026-05-06 22:39 | 35.17361 | -89.61110 | 10957 ft | 377 kts | 81° |
| 2026-05-06 22:39 | 35.17819 | -89.57914 | 11454 ft | 390 kts | 81° |
| 2026-05-06 22:39 | 35.18293 | -89.54604 | 12145 ft | 397 kts | 81° |
| 2026-05-06 22:40 | 35.18774 | -89.51240 | 12839 ft | 405 kts | 81° |
| 2026-05-06 22:40 | 35.19257 | -89.47853 | 13518 ft | 413 kts | 81° |
| 2026-05-06 22:40 | 35.19747 | -89.44405 | 14197 ft | 420 kts | 81° |
| 2026-05-06 22:40 | 35.20254 | -89.40830 | 14839 ft | 429 kts | 81° |
| 2026-05-06 22:41 | 35.21281 | -89.33569 | 16171 ft | 443 kts | 81° |
| 2026-05-06 22:41 | 35.21668 | -89.30825 | 16623 ft | 448 kts | 81° |
| 2026-05-06 22:41 | 35.22195 | -89.27078 | 17244 ft | 454 kts | 82° |
| 2026-05-06 22:42 | 35.22737 | -89.23222 | 17838 ft | 461 kts | 82° |
| 2026-05-06 22:42 | 35.23276 | -89.19372 | 18427 ft | 467 kts | 82° |
| 2026-05-06 22:42 | 35.23827 | -89.15432 | 19016 ft | 473 kts | 82° |
| 2026-05-06 22:42 | 35.24267 | -89.12273 | 19489 ft | 477 kts | 81° |
| 2026-05-06 22:43 | 35.24688 | -89.09285 | 19931 ft | 480 kts | 81° |
| 2026-05-06 22:43 | 35.25287 | -89.05222 | 20528 ft | 485 kts | 81° |
| 2026-05-06 22:43 | 35.25897 | -89.01187 | 21096 ft | 490 kts | 80° |
| 2026-05-06 22:43 | 35.26515 | -88.97057 | 21648 ft | 495 kts | 80° |
| 2026-05-06 22:44 | 35.27129 | -88.92916 | 22180 ft | 500 kts | 81° |
| 2026-05-06 22:44 | 35.27756 | -88.88672 | 22702 ft | 504 kts | 80° |
| 2026-05-06 22:44 | 35.28369 | -88.84505 | 23211 ft | 509 kts | 80° |
| 2026-05-06 22:44 | 35.29004 | -88.80180 | 23727 ft | 513 kts | 80° |
| 2026-05-06 22:45 | 35.29632 | -88.75899 | 24211 ft | 517 kts | 80° |
| 2026-05-06 22:45 | 35.30268 | -88.71555 | 24692 ft | 521 kts | 80° |
| 2026-05-06 22:45 | 35.30910 | -88.67152 | 25160 ft | 526 kts | 80° |
| 2026-05-06 22:45 | 35.31544 | -88.62784 | 25612 ft | 530 kts | 80° |
| 2026-05-06 22:46 | 35.32189 | -88.58340 | 26058 ft | 534 kts | 80° |
| 2026-05-06 22:46 | 35.32839 | -88.53838 | 26496 ft | 538 kts | 80° |
| 2026-05-06 22:46 | 35.33492 | -88.49313 | 26923 ft | 541 kts | 80° |
| 2026-05-06 22:46 | 35.34140 | -88.44805 | 27332 ft | 545 kts | 80° |
| 2026-05-06 22:47 | 35.34801 | -88.40196 | 27741 ft | 549 kts | 80° |
| 2026-05-06 22:47 | 35.35456 | -88.35607 | 28107 ft | 554 kts | 80° |
| 2026-05-06 22:47 | 35.36120 | -88.30949 | 28496 ft | 557 kts | 81° |
| 2026-05-06 22:47 | 35.36788 | -88.26244 | 28853 ft | 560 kts | 81° |
| 2026-05-06 22:48 | 35.37451 | -88.21565 | 29187 ft | 563 kts | 81° |
| 2026-05-06 22:48 | 35.38124 | -88.16795 | 29491 ft | 567 kts | 81° |
| 2026-05-06 22:48 | 35.38787 | -88.12093 | 30073 ft | 564 kts | 81° |
| 2026-05-06 22:48 | 35.39453 | -88.07354 | 30551 ft | 563 kts | 81° |
| 2026-05-06 22:49 | 35.40115 | -88.02619 | 30917 ft | 565 kts | 81° |
| 2026-05-06 22:49 | 35.40779 | -87.97854 | 31292 ft | 566 kts | 81° |
| 2026-05-06 22:49 | 35.41435 | -87.93120 | 31643 ft | 567 kts | 81° |
| 2026-05-06 22:49 | 35.42088 | -87.88409 | 32000 ft | 568 kts | 80° |
| 2026-05-06 22:50 | 35.42752 | -87.83621 | 32335 ft | 569 kts | 80° |
| 2026-05-06 22:50 | 35.43417 | -87.78811 | 32683 ft | 570 kts | 80° |
| 2026-05-06 22:50 | 35.44284 | -87.72507 | 33140 ft | 570 kts | 80° |
| 2026-05-06 22:50 | 35.44730 | -87.69253 | 33349 ft | 571 kts | 80° |
| 2026-05-06 22:51 | 35.45381 | -87.64490 | 33658 ft | 572 kts | 80° |
| 2026-05-06 22:51 | 35.46031 | -87.59721 | 33976 ft | 572 kts | 80° |
| 2026-05-06 22:51 | 35.46684 | -87.54918 | 34283 ft | 573 kts | 79° |
| 2026-05-06 22:51 | 35.47331 | -87.50131 | 34584 ft | 573 kts | 79° |
| 2026-05-06 22:52 | 35.47987 | -87.45272 | 34908 ft | 573 kts | 79° |
| 2026-05-06 22:52 | 35.48634 | -87.40480 | 35020 ft | 577 kts | 79° |
| 2026-05-06 22:52 | 35.49281 | -87.35661 | 35014 ft | 577 kts | 79° |
| 2026-05-06 22:53 | 35.50566 | -87.26027 | 35016 ft | 570 kts | 80° |
| 2026-05-06 22:53 | 35.51841 | -87.16434 | 35018 ft | 570 kts | 80° |
| 2026-05-06 22:54 | 35.53102 | -87.06877 | 35015 ft | 571 kts | 80° |
| 2026-05-06 22:54 | 35.54357 | -86.97303 | 35008 ft | 570 kts | 80° |
| 2026-05-06 22:55 | 35.55605 | -86.87702 | 35000 ft | 570 kts | 80° |
| 2026-05-06 22:55 | 35.56847 | -86.78115 | 34999 ft | 569 kts | 80° |
| 2026-05-06 22:56 | 35.58080 | -86.68530 | 35000 ft | 570 kts | 80° |
| 2026-05-06 22:56 | 35.59310 | -86.58908 | 34999 ft | 571 kts | 80° |
| 2026-05-06 22:57 | 35.60522 | -86.49342 | 34999 ft | 570 kts | 79° |
| 2026-05-06 22:57 | 35.61737 | -86.39713 | 34999 ft | 571 kts | 79° |
| 2026-05-06 22:58 | 35.62947 | -86.30052 | 35000 ft | 571 kts | 81° |
| 2026-05-06 22:58 | 35.64146 | -86.20414 | 35000 ft | 572 kts | 81° |
| 2026-05-06 22:59 | 35.65338 | -86.10777 | 34997 ft | 573 kts | 80° |
| 2026-05-06 22:59 | 35.66519 | -86.01138 | 34989 ft | 574 kts | 80° |
| 2026-05-06 23:00 | 35.67702 | -85.91446 | 34982 ft | 572 kts | 80° |
| 2026-05-06 23:00 | 35.68869 | -85.81807 | 34981 ft | 572 kts | 80° |
| 2026-05-06 23:01 | 35.70036 | -85.72096 | 34981 ft | 572 kts | 80° |
| 2026-05-06 23:01 | 35.71181 | -85.62503 | 34981 ft | 571 kts | 80° |
| 2026-05-06 23:02 | 35.72327 | -85.52844 | 34981 ft | 569 kts | 80° |
| 2026-05-06 23:02 | 35.73463 | -85.43202 | 34981 ft | 568 kts | 80° |
| 2026-05-06 23:03 | 35.74581 | -85.33627 | 34981 ft | 567 kts | 81° |
| 2026-05-06 23:03 | 35.75695 | -85.24020 | 34981 ft | 566 kts | 81° |
| 2026-05-06 23:04 | 35.76801 | -85.14445 | 34978 ft | 566 kts | 81° |
| 2026-05-06 23:04 | 35.77900 | -85.04836 | 34971 ft | 565 kts | 81° |
| 2026-05-06 23:05 | 35.78986 | -84.95280 | 34964 ft | 565 kts | 81° |
| 2026-05-06 23:05 | 35.80060 | -84.85761 | 34963 ft | 564 kts | 80° |
| 2026-05-06 23:06 | 35.81128 | -84.76210 | 34963 ft | 563 kts | 80° |
| 2026-05-06 23:06 | 35.82190 | -84.66670 | 34963 ft | 564 kts | 80° |
| 2026-05-06 23:07 | 35.83217 | -84.57368 | 34963 ft | 564 kts | 80° |
| 2026-05-06 23:07 | 35.84263 | -84.47804 | 34963 ft | 564 kts | 80° |
| 2026-05-06 23:08 | 35.85305 | -84.38229 | 34963 ft | 564 kts | 80° |
| 2026-05-06 23:08 | 35.86340 | -84.28642 | 34964 ft | 564 kts | 81° |
| 2026-05-06 23:09 | 35.87365 | -84.19078 | 34967 ft | 565 kts | 81° |
| 2026-05-06 23:09 | 35.88387 | -84.09457 | 34973 ft | 566 kts | 81° |
| 2026-05-06 23:10 | 35.89396 | -83.99886 | 34978 ft | 566 kts | 81° |
| 2026-05-06 23:10 | 35.90842 | -83.90413 | 34977 ft | 562 kts | 71° |
| 2026-05-06 23:11 | 35.93535 | -83.81429 | 34977 ft | 553 kts | 59° |
| 2026-05-06 23:11 | 35.96726 | -83.72851 | 34974 ft | 552 kts | 59° |
| 2026-05-06 23:12 | 35.99880 | -83.64246 | 34972 ft | 551 kts | 59° |
| 2026-05-06 23:12 | 36.03037 | -83.55663 | 34972 ft | 552 kts | 59° |
| 2026-05-06 23:13 | 36.06213 | -83.47034 | 34972 ft | 553 kts | 59° |
| 2026-05-06 23:13 | 36.09352 | -83.38484 | 34972 ft | 552 kts | 59° |
| 2026-05-06 23:14 | 36.12525 | -83.29822 | 34972 ft | 550 kts | 60° |
| 2026-05-06 23:14 | 36.15675 | -83.21204 | 34972 ft | 551 kts | 60° |
| 2026-05-06 23:15 | 36.18815 | -83.12588 | 34972 ft | 550 kts | 60° |
| 2026-05-06 23:15 | 36.21933 | -83.04005 | 34972 ft | 548 kts | 60° |
| 2026-05-06 23:16 | 36.25055 | -82.95396 | 34972 ft | 548 kts | 60° |
| 2026-05-06 23:16 | 36.28102 | -82.86967 | 34972 ft | 547 kts | 60° |
| 2026-05-06 23:17 | 36.31249 | -82.78236 | 34972 ft | 546 kts | 60° |
| 2026-05-06 23:17 | 36.34310 | -82.69720 | 34972 ft | 545 kts | 60° |
| 2026-05-06 23:18 | 36.37392 | -82.61124 | 34972 ft | 544 kts | 60° |
| 2026-05-06 23:18 | 36.40459 | -82.52546 | 34972 ft | 543 kts | 60° |
| 2026-05-06 23:19 | 36.43505 | -82.44000 | 34972 ft | 542 kts | 60° |
| 2026-05-06 23:19 | 36.46500 | -82.35576 | 34972 ft | 542 kts | 60° |
| 2026-05-06 23:20 | 36.49539 | -82.27003 | 34973 ft | 541 kts | 61° |
| 2026-05-06 23:20 | 36.52560 | -82.18461 | 34977 ft | 542 kts | 61° |
| 2026-05-06 23:21 | 36.55572 | -82.09917 | 34980 ft | 542 kts | 61° |
| 2026-05-06 23:21 | 36.58591 | -82.01328 | 34989 ft | 542 kts | 61° |
| 2026-05-06 23:22 | 36.61608 | -81.92717 | 34996 ft | 540 kts | 62° |
| 2026-05-06 23:22 | 36.64566 | -81.84156 | 34996 ft | 541 kts | 64° |
| 2026-05-06 23:22 | 36.65797 | -81.79756 | 34777 ft | 542 kts | 69° |
| 2026-05-06 23:23 | 36.66810 | -81.75319 | 34526 ft | 532 kts | 71° |
| 2026-05-06 23:23 | 36.67791 | -81.70896 | 34273 ft | 522 kts | 71° |
| 2026-05-06 23:23 | 36.68783 | -81.66586 | 34022 ft | 513 kts | 70° |
| 2026-05-06 23:23 | 36.69770 | -81.62386 | 33772 ft | 503 kts | 70° |
| 2026-05-06 23:24 | 36.70755 | -81.58195 | 33518 ft | 494 kts | 70° |
| 2026-05-06 23:24 | 36.71698 | -81.54145 | 33269 ft | 486 kts | 70° |
| 2026-05-06 23:24 | 36.72617 | -81.50164 | 33020 ft | 477 kts | 70° |
| 2026-05-06 23:24 | 36.73526 | -81.46212 | 32769 ft | 470 kts | 70° |
| 2026-05-06 23:25 | 36.74419 | -81.42348 | 32523 ft | 468 kts | 70° |
| 2026-05-06 23:25 | 36.75329 | -81.38429 | 32275 ft | 470 kts | 70° |
| 2026-05-06 23:25 | 36.76240 | -81.34487 | 32024 ft | 471 kts | 71° |
| 2026-05-06 23:25 | 36.77141 | -81.30558 | 31776 ft | 471 kts | 72° |
| 2026-05-06 23:26 | 36.78014 | -81.26736 | 31533 ft | 471 kts | 72° |
| 2026-05-06 23:26 | 36.78930 | -81.22736 | 31279 ft | 470 kts | 72° |
| 2026-05-06 23:26 | 36.79821 | -81.18847 | 31031 ft | 469 kts | 72° |
| 2026-05-06 23:26 | 36.80721 | -81.14911 | 30780 ft | 469 kts | 72° |
| 2026-05-06 23:27 | 36.81603 | -81.11043 | 30532 ft | 468 kts | 73° |
| 2026-05-06 23:27 | 36.82492 | -81.07128 | 30281 ft | 468 kts | 73° |
| 2026-05-06 23:27 | 36.83373 | -81.03252 | 30033 ft | 467 kts | 73° |
| 2026-05-06 23:27 | 36.84261 | -80.99335 | 29781 ft | 466 kts | 73° |
| 2026-05-06 23:28 | 36.85135 | -80.95473 | 29532 ft | 466 kts | 73° |
| 2026-05-06 23:28 | 36.86019 | -80.91555 | 29280 ft | 466 kts | 73° |
| 2026-05-06 23:28 | 36.86887 | -80.87710 | 29032 ft | 466 kts | 73° |
| 2026-05-06 23:28 | 36.87770 | -80.83785 | 28779 ft | 466 kts | 73° |
| 2026-05-06 23:29 | 36.88639 | -80.79920 | 28531 ft | 467 kts | 73° |
| 2026-05-06 23:29 | 36.89519 | -80.75996 | 28278 ft | 467 kts | 73° |
| 2026-05-06 23:29 | 36.90383 | -80.72141 | 28030 ft | 467 kts | 73° |
| 2026-05-06 23:29 | 36.91266 | -80.68186 | 27776 ft | 467 kts | 73° |
| 2026-05-06 23:30 | 36.92124 | -80.64342 | 27529 ft | 466 kts | 73° |
| 2026-05-06 23:30 | 36.92823 | -80.61210 | 27328 ft | 467 kts | 73° |
| 2026-05-06 23:30 | 36.93693 | -80.57297 | 27076 ft | 467 kts | 73° |
| 2026-05-06 23:30 | 36.94559 | -80.53400 | 26826 ft | 467 kts | 73° |
| 2026-05-06 23:31 | 36.95425 | -80.49493 | 26575 ft | 467 kts | 73° |
| 2026-05-06 23:31 | 36.96273 | -80.45614 | 26327 ft | 468 kts | 73° |
| 2026-05-06 23:31 | 36.97101 | -80.41704 | 26077 ft | 469 kts | 74° |
| 2026-05-06 23:31 | 36.97928 | -80.37783 | 25828 ft | 470 kts | 73° |
| 2026-05-06 23:32 | 36.98759 | -80.33859 | 25577 ft | 469 kts | 74° |
| 2026-05-06 23:32 | 36.99586 | -80.29961 | 25330 ft | 469 kts | 74° |
| 2026-05-06 23:32 | 37.00412 | -80.26057 | 25082 ft | 469 kts | 74° |
| 2026-05-06 23:32 | 37.01237 | -80.22147 | 24967 ft | 467 kts | 74° |
| 2026-05-06 23:33 | 37.02072 | -80.18185 | 24973 ft | 470 kts | 74° |
| 2026-05-06 23:33 | 37.02902 | -80.14240 | 24971 ft | 473 kts | 74° |
| 2026-05-06 23:33 | 37.03611 | -80.10269 | 24963 ft | 474 kts | 82° |
| 2026-05-06 23:33 | 37.03842 | -80.06118 | 24958 ft | 472 kts | 93° |
| 2026-05-06 23:34 | 37.03463 | -80.02095 | 24952 ft | 467 kts | 107° |
| 2026-05-06 23:34 | 37.02444 | -79.98273 | 24949 ft | 461 kts | 118° |
| 2026-05-06 23:34 | 37.01117 | -79.94607 | 24941 ft | 458 kts | 120° |
| 2026-05-06 23:34 | 36.99826 | -79.91023 | 24936 ft | 457 kts | 118° |
| 2026-05-06 23:35 | 36.98547 | -79.87359 | 24935 ft | 458 kts | 118° |
| 2026-05-06 23:35 | 36.97284 | -79.83752 | 24935 ft | 458 kts | 118° |
| 2026-05-06 23:35 | 36.95989 | -79.80100 | 24935 ft | 457 kts | 119° |
| 2026-05-06 23:35 | 36.94697 | -79.76473 | 24935 ft | 457 kts | 119° |
| 2026-05-06 23:36 | 36.93411 | -79.72868 | 24935 ft | 457 kts | 119° |
| 2026-05-06 23:36 | 36.92109 | -79.69231 | 24935 ft | 457 kts | 119° |
| 2026-05-06 23:36 | 36.90813 | -79.65613 | 24935 ft | 456 kts | 118° |
| 2026-05-06 23:36 | 36.89758 | -79.61832 | 24932 ft | 462 kts | 105° |
| 2026-05-06 23:37 | 36.89435 | -79.57864 | 24802 ft | 462 kts | 89° |
| 2026-05-06 23:37 | 36.89800 | -79.53860 | 24222 ft | 463 kts | 79° |
| 2026-05-06 23:37 | 36.90336 | -79.49909 | 23680 ft | 462 kts | 80° |
| 2026-05-06 23:37 | 36.90823 | -79.45981 | 23201 ft | 459 kts | 81° |
| 2026-05-06 23:38 | 36.91298 | -79.42020 | 22713 ft | 456 kts | 81° |
| 2026-05-06 23:38 | 36.91763 | -79.38143 | 22242 ft | 454 kts | 81° |
| 2026-05-06 23:38 | 36.92234 | -79.34256 | 21768 ft | 451 kts | 81° |
| 2026-05-06 23:38 | 36.92703 | -79.30405 | 21316 ft | 447 kts | 81° |
| 2026-05-06 23:39 | 36.93166 | -79.26574 | 20851 ft | 444 kts | 81° |
| 2026-05-06 23:39 | 36.93621 | -79.22810 | 20363 ft | 442 kts | 81° |
| 2026-05-06 23:39 | 36.94078 | -79.19006 | 19954 ft | 437 kts | 82° |
| 2026-05-06 23:39 | 36.94155 | -79.15276 | 19928 ft | 427 kts | 99° |
| 2026-05-06 23:40 | 36.93510 | -79.11700 | 19557 ft | 421 kts | 111° |
| 2026-05-06 23:40 | 36.92610 | -79.08200 | 18887 ft | 424 kts | 111° |
| 2026-05-06 23:40 | 36.91730 | -79.04678 | 18349 ft | 424 kts | 110° |
| 2026-05-06 23:40 | 36.90874 | -79.01199 | 17878 ft | 422 kts | 110° |
| 2026-05-06 23:41 | 36.90011 | -78.97719 | 17427 ft | 420 kts | 110° |
| 2026-05-06 23:41 | 36.89146 | -78.94246 | 17006 ft | 416 kts | 110° |
| 2026-05-06 23:41 | 36.88289 | -78.90814 | 16564 ft | 413 kts | 110° |
| 2026-05-06 23:41 | 36.87428 | -78.87401 | 16134 ft | 410 kts | 110° |
| 2026-05-06 23:42 | 36.86490 | -78.84092 | 15705 ft | 403 kts | 120° |
| 2026-05-06 23:42 | 36.84956 | -78.81232 | 15242 ft | 388 kts | 140° |
| 2026-05-06 23:42 | 36.82893 | -78.79284 | 14816 ft | 368 kts | 161° |
| 2026-05-06 23:42 | 36.80518 | -78.78382 | 14344 ft | 346 kts | 183° |
| 2026-05-06 23:43 | 36.78249 | -78.78746 | 13843 ft | 320 kts | 210° |
| 2026-05-06 23:43 | 36.76498 | -78.80240 | 13383 ft | 303 kts | 230° |
| 2026-05-06 23:43 | 36.75033 | -78.82111 | 12927 ft | 301 kts | 231° |
| 2026-05-06 23:43 | 36.73581 | -78.83936 | 12448 ft | 301 kts | 230° |
| 2026-05-06 23:44 | 36.72103 | -78.85774 | 12039 ft | 298 kts | 230° |
| 2026-05-06 23:44 | 36.70633 | -78.87563 | 11977 ft | 298 kts | 225° |
| 2026-05-06 23:44 | 36.68764 | -78.88824 | 11989 ft | 319 kts | 202° |
| 2026-05-06 23:44 | 36.66565 | -78.89172 | 11994 ft | 324 kts | 191° |
| 2026-05-06 23:45 | 36.64308 | -78.89394 | 11989 ft | 319 kts | 194° |
| 2026-05-06 23:45 | 36.62134 | -78.89722 | 11991 ft | 318 kts | 195° |
| 2026-05-06 23:45 | 36.59950 | -78.90074 | 11992 ft | 319 kts | 195° |
| 2026-05-06 23:45 | 36.57753 | -78.90427 | 11993 ft | 319 kts | 195° |
| 2026-05-06 23:46 | 36.55544 | -78.90789 | 11995 ft | 319 kts | 195° |
| 2026-05-06 23:46 | 36.53351 | -78.91152 | 11996 ft | 319 kts | 195° |
| 2026-05-06 23:46 | 36.51165 | -78.91516 | 11997 ft | 320 kts | 195° |
| 2026-05-06 23:46 | 36.48959 | -78.91884 | 11999 ft | 320 kts | 195° |
| 2026-05-06 23:47 | 36.46745 | -78.92252 | 11999 ft | 320 kts | 195° |
| 2026-05-06 23:47 | 36.44562 | -78.92617 | 11999 ft | 319 kts | 195° |
| 2026-05-06 23:47 | 36.42358 | -78.92966 | 11997 ft | 316 kts | 192° |
| 2026-05-06 23:47 | 36.40189 | -78.92772 | 11840 ft | 322 kts | 172° |
| 2026-05-06 23:48 | 36.38192 | -78.91400 | 11555 ft | 334 kts | 143° |
| 2026-05-06 23:48 | 36.36633 | -78.89261 | 11363 ft | 329 kts | 137° |
| 2026-05-06 23:48 | 36.35087 | -78.87265 | 11202 ft | 317 kts | 142° |
| 2026-05-06 23:48 | 36.33539 | -78.85380 | 10942 ft | 312 kts | 141° |
| 2026-05-06 23:49 | 36.32014 | -78.83468 | 10628 ft | 310 kts | 141° |
| 2026-05-06 23:49 | 36.30525 | -78.81580 | 10240 ft | 310 kts | 140° |
| 2026-05-06 23:49 | 36.29002 | -78.79671 | 9836 ft | 310 kts | 141° |
| 2026-05-06 23:49 | 36.27501 | -78.77801 | 9521 ft | 304 kts | 140° |
| 2026-05-06 23:50 | 36.26065 | -78.75974 | 9401 ft | 284 kts | 140° |
| 2026-05-06 23:50 | 36.23437 | -78.72639 | 8862 ft | 261 kts | 141° |
| 2026-05-06 23:50 | 36.22185 | -78.71059 | 8522 ft | 258 kts | 141° |
| 2026-05-06 23:51 | 36.20947 | -78.69490 | 8035 ft | 257 kts | 141° |
| 2026-05-06 23:51 | 36.19688 | -78.67901 | 7460 ft | 259 kts | 141° |
| 2026-05-06 23:51 | 36.18411 | -78.66306 | 6813 ft | 262 kts | 145° |
| 2026-05-06 23:51 | 36.17009 | -78.64929 | 6176 ft | 262 kts | 151° |
| 2026-05-06 23:52 | 36.15554 | -78.63548 | 5529 ft | 267 kts | 148° |
| 2026-05-06 23:52 | 36.14087 | -78.62101 | 4898 ft | 278 kts | 147° |
| 2026-05-06 23:52 | 36.12557 | -78.60584 | 4416 ft | 281 kts | 148° |
| 2026-05-06 23:52 | 36.10892 | -78.59476 | 4026 ft | 270 kts | 170° |
| 2026-05-06 23:53 | 36.09103 | -78.59470 | 3860 ft | 245 kts | 197° |
| 2026-05-06 23:53 | 36.07536 | -78.60001 | 3702 ft | 226 kts | 198° |
| 2026-05-06 23:53 | 36.06060 | -78.60454 | 3534 ft | 210 kts | 198° |
| 2026-05-06 23:53 | 36.04677 | -78.60899 | 3275 ft | 202 kts | 198° |
| 2026-05-06 23:54 | 36.03371 | -78.61409 | 3001 ft | 193 kts | 204° |
| 2026-05-06 23:54 | 36.02270 | -78.62172 | 2995 ft | 170 kts | 220° |
| 2026-05-06 23:54 | 36.01382 | -78.63109 | 3002 ft | 168 kts | 222° |
| 2026-05-06 23:54 | 36.00515 | -78.64063 | 3000 ft | 168 kts | 223° |
| 2026-05-06 23:55 | 35.99673 | -78.65076 | 2999 ft | 168 kts | 225° |
| 2026-05-06 23:55 | 35.98839 | -78.66103 | 2990 ft | 169 kts | 225° |
| 2026-05-06 23:55 | 35.98012 | -78.67127 | 2801 ft | 168 kts | 225° |
| 2026-05-06 23:55 | 35.97207 | -78.68124 | 2591 ft | 161 kts | 225° |
| 2026-05-06 23:56 | 35.96420 | -78.69099 | 2381 ft | 159 kts | 225° |
| 2026-05-06 23:56 | 35.95641 | -78.70064 | 2180 ft | 160 kts | 225° |
| 2026-05-06 23:56 | 35.94848 | -78.71046 | 1947 ft | 160 kts | 225° |
| 2026-05-06 23:56 | 35.94086 | -78.71989 | 1717 ft | 153 kts | 225° |
| 2026-05-06 23:57 | 35.93351 | -78.72898 | 1568 ft | 148 kts | 225° |
| 2026-05-06 23:57 | 35.92637 | -78.73781 | 1330 ft | 144 kts | 225° |
| 2026-05-06 23:57 | 35.91919 | -78.74669 | 1130 ft | 145 kts | 225° |
| 2026-05-06 23:57 | 35.91215 | -78.75535 | 945 ft | 145 kts | 225° |
| 2026-05-06 23:58 | 35.90508 | -78.76417 | 750 ft | 144 kts | 225° |
| 2026-05-06 23:58 | 35.89798 | -78.77293 | 537 ft | 144 kts | 225° |
| 2026-05-06 23:58 | 35.89108 | -78.78146 | 400 ft | 134 kts | 225° |
| 2026-05-06 23:58 | 35.88568 | -78.78811 | 407 ft | 74 kts | 225° |
| 2026-05-06 23:59 | 35.88337 | -78.79067 | 412 ft | 23 kts | 198° |
| 2026-05-06 23:59 | 35.88264 | -78.79054 | 403 ft | 4 kts | 141° |
| 2026-05-06 23:59 | 35.88256 | -78.79044 | 401 ft | 0 kts | 138° |
| 2026-05-07 00:00 | 35.88255 | -78.79044 | 401 ft | 1 kts | 138° |
| 2026-05-07 00:00 | 35.88224 | -78.79006 | 401 ft | 6 kts | 135° |
| 2026-05-07 00:00 | 35.88217 | -78.78998 | 402 ft | 0 kts | 135° |
| 2026-05-07 00:02 | 35.88223 | -78.79005 | 401 ft | 0 kts | 135° |
| 2026-05-07 00:02 | 35.88206 | -78.78990 | 403 ft | 7 kts | 160° |
| 2026-05-07 00:02 | 35.88110 | -78.78967 | 403 ft | 15 kts | 135° |
| 2026-05-07 00:02 | 35.88041 | -78.78884 | 409 ft | 16 kts | 136° |
| 2026-05-07 00:03 | 35.87958 | -78.78789 | 409 ft | 25 kts | 139° |
| 2026-05-07 00:03 | 35.87839 | -78.78733 | 412 ft | 24 kts | 154° |
| 2026-05-07 00:03 | 35.87715 | -78.78599 | 416 ft | 22 kts | 135° |
| 2026-05-07 00:03 | 35.87665 | -78.78538 | 416 ft | 1 kts | 135° |
| 2026-05-07 00:04 | 35.87662 | -78.78534 | 416 ft | 0 kts | 135° |
| 2026-05-07 00:04 | 35.87660 | -78.78531 | 416 ft | 2 kts | 135° |
| 2026-05-07 00:04 | 35.87620 | -78.78508 | 416 ft | 11 kts | 191° |
| 2026-05-07 00:04 | 35.87540 | -78.78596 | 416 ft | 19 kts | 225° |
| 2026-05-07 00:05 | 35.87434 | -78.78727 | 416 ft | 22 kts | 225° |
| 2026-05-07 00:05 | 35.87335 | -78.78850 | 416 ft | 17 kts | 225° |
| 2026-05-07 00:05 | 35.87336 | -78.78952 | 416 ft | 8 kts | 316° |
| 2026-05-07 00:05 | 35.87365 | -78.78983 | 416 ft | 0 kts | 319° |